Time;durP1;ratioP1;P1;durP2;ratioP2;P2;SDS_P1;SDS_P2;PMS_P1;PMS_P2;Temp;Humidity;BMP_temperature;BMP_pressure;BME280_temperature;BME280_humidity;BME280_pressure;Samples;Min_cycle;Max_cycle;Signal;HPM_P1;HPM_P2
2023/03/04 00:01:14;;;;;;;;;;;;;;;;;;5051258;28;19919;-78
2023/03/04 00:03:39;;;;;;;;;;;;;;;;;;5051623;28;19920;-78
2023/03/04 00:06:05;;;;;;;;;;;;;;;;;;5052246;28;19912;-77
2023/03/04 00:08:30;;;;;;;;;;;;;;;;;;5052113;28;19959;-78
2023/03/04 00:10:55;;;;;;;;;;;;;;;;;;5051334;28;19921;-77
2023/03/04 00:13:21;;;;;;;;;;;;;;;;;;5051484;28;19917;-77
2023/03/04 00:15:46;;;;;;;;;;;;;;;;;;5051256;28;20291;-77
2023/03/04 00:18:11;;;;;;;;;;;;;;;;;;5049294;28;19913;-78
2023/03/04 00:20:36;;;;;;;;;;;;;;;;;;5049766;28;19936;-78
2023/03/04 00:23:01;;;;;;;;;;;;;;;;;;5051454;28;19913;-78
2023/03/04 00:25:26;;;;;;;;;;;;;;;;;;5049874;28;19944;-78
2023/03/04 00:27:51;;;;;;;;;;;;;;;;;;5052755;28;19913;-78
2023/03/04 00:30:17;;;;;;;;;;;;;;;;;;5051309;28;19924;-78
2023/03/04 00:32:42;;;;;;;;;;;;;;;;;;5044291;28;19920;-78
2023/03/04 00:35:07;;;;;;;;;;;;;;;;;;5051524;28;19918;-79
2023/03/04 00:37:32;;;;;;;;;;;;;;;;;;5062599;28;19952;-79
2023/03/04 00:39:57;;;;;;;;;;;;;;;;;;5049858;28;20300;-78
2023/03/04 00:42:22;;;;;;;;;;;;;;;;;;5050032;28;19967;-78
2023/03/04 00:44:48;;;;;;;;;;;;;;;;;;5050506;28;19919;-78
2023/03/04 00:47:13;;;;;;;;;;;;;;;;;;5052089;28;19924;-79
2023/03/04 00:49:38;;;;;;;;;;;;;;;;;;5067043;28;19912;-78
2023/03/04 00:52:03;;;;;;;;;;;;;;;;;;5050166;28;19917;-78
2023/03/04 00:54:29;;;;;;;;;;;;;;;;;;5052084;28;19963;-78
2023/03/04 00:56:54;;;;;;;;;;;;;;;;;;5044038;28;19928;-77
2023/03/04 00:59:19;;;;;;;;;;;;;;;;;;5083118;28;20285;-77
2023/03/04 01:01:44;;;;;;;;;;;;;;;;;;5050563;28;20274;-78
2023/03/04 01:04:09;;;;;;;;;;;;;;;;;;5048278;28;20377;-77
2023/03/04 01:06:34;;;;;;;;;;;;;;;;;;5056693;28;20003;-77
2023/03/04 01:09:00;;;;;;;;;;;;;;;;;;5078869;28;19913;-77
2023/03/04 01:11:26;;;;;;;;;;;;;;;;;;5051069;28;19939;-77
2023/03/04 01:13:51;;;;;;;;;;;;;;;;;;5048501;28;20365;-77
2023/03/04 01:16:16;;;;;;;;;;;;;;;;;;5052317;28;19913;-77
2023/03/04 01:18:41;;;;;;;;;;;;;;;;;;5050814;28;19917;-77
2023/03/04 01:21:06;;;;;;;;;;;;;;;;;;5051682;28;19959;-77
2023/03/04 01:23:31;;;;;;;;;;;;;;;;;;5049420;28;19920;-77
2023/03/04 01:25:56;;;;;;;;;;;;;;;;;;5050766;28;19916;-77
2023/03/04 01:28:22;;;;;;;;;;;;;;;;;;5051977;28;20011;-77
2023/03/04 01:30:47;;;;;;;;;;;;;;;;;;5048400;28;20357;-77
2023/03/04 01:33:12;;;;;;;;;;;;;;;;;;5050030;28;20393;-76
2023/03/04 01:35:37;;;;;;;;;;;;;;;;;;5050263;28;20314;-76
2023/03/04 01:38:02;;;;;;;;;;;;;;;;;;5050413;28;21386;-77
2023/03/04 01:40:27;;;;;;;;;;;;;;;;;;5049403;28;19924;-76
2023/03/04 01:42:52;;;;;;;;;;;;;;;;;;5048299;28;19912;-77
2023/03/04 01:45:17;;;;;;;;;;;;;;;;;;5048873;28;19913;-77
2023/03/04 01:47:47;;;;;;;;;;;;;;;;;;5051155;28;19913;-78
2023/03/04 01:50:12;;;;;;;;;;;;;;;;;;5050989;28;19912;-78
2023/03/04 01:52:37;;;;;;;;;;;;;;;;;;5049726;28;20258;-78
2023/03/04 01:55:02;;;;;;;;;;;;;;;;;;5048831;28;19995;-77
2023/03/04 01:57:27;;;;;;;;;;;;;;;;;;5049786;28;19921;-77
2023/03/04 01:59:52;;;;;;;;;;;;;;;;;;5054116;28;20019;-77
2023/03/04 02:02:17;;;;;;;;;;;;;;;;;;5060454;28;19921;-77
2023/03/04 02:04:43;;;;;;;;;;;;;;;;;;5077560;28;19913;-77
2023/03/04 02:07:08;;;;;;;;;;;;;;;;;;5049811;28;19913;-77
2023/03/04 02:09:33;;;;;;;;;;;;;;;;;;5050985;28;20295;-77
2023/03/04 02:11:59;;;;;;;;;;;;;;;;;;5049640;28;20331;-77
2023/03/04 02:14:24;;;;;;;;;;;;;;;;;;5045280;28;19991;-77
2023/03/04 02:16:49;;;;;;;;;;;;;;;;;;5047865;28;20373;-77
2023/03/04 02:19:14;;;;;;;;;;;;;;;;;;5049902;28;19917;-77
2023/03/04 02:21:39;;;;;;;;;;;;;;;;;;5050361;28;20331;-77
2023/03/04 02:24:04;;;;;;;;;;;;;;;;;;5050296;28;19919;-77
2023/03/04 02:26:30;;;;;;;;;;;;;;;;;;5042807;28;19992;-78
2023/03/04 02:28:55;;;;;;;;;;;;;;;;;;5049238;28;19919;-77
2023/03/04 02:31:20;;;;;;;;;;;;;;;;;;5050548;28;19919;-77
2023/03/04 02:33:45;;;;;;;;;;;;;;;;;;5049604;28;20811;-77
2023/03/04 02:36:10;;;;;;;;;;;;;;;;;;5051134;28;19920;-78
2023/03/04 02:38:35;;;;;;;;;;;;;;;;;;5049563;28;20365;-77
2023/03/04 02:41:00;;;;;;;;;;;;;;;;;;5064559;28;20349;-77
2023/03/04 02:43:26;;;;;;;;;;;;;;;;;;5048360;28;20011;-78
2023/03/04 02:45:51;;;;;;;;;;;;;;;;;;5061944;28;19923;-78
2023/03/04 02:48:16;;;;;;;;;;;;;;;;;;5047214;28;19941;-77
2023/03/04 02:50:41;;;;;;;;;;;;;;;;;;5084349;28;19909;-77
2023/03/04 02:53:06;;;;;;;;;;;;;;;;;;5053007;28;20280;-77
2023/03/04 02:55:32;;;;;;;;;;;;;;;;;;5052871;28;19909;-77
2023/03/04 02:57:57;;;;;;;;;;;;;;;;;;5053257;28;19995;-77
2023/03/04 03:00:22;;;;;;;;;;;;;;;;;;5053665;28;19917;-78
2023/03/04 03:02:47;;;;;;;;;;;;;;;;;;5054048;28;19913;-77
2023/03/04 03:05:12;;;;;;;;;;;;;;;;;;5051271;28;19909;-78
2023/03/04 03:07:37;;;;;;;;;;;;;;;;;;5065577;28;19914;-77
2023/03/04 03:10:03;;;;;;;;;;;;;;;;;;5050093;28;19966;-77
2023/03/04 03:12:28;;;;;;;;;;;;;;;;;;5084676;28;19966;-77
2023/03/04 03:14:53;;;;;;;;;;;;;;;;;;5052767;28;20016;-77
2023/03/04 03:17:18;;;;;;;;;;;;;;;;;;5052493;28;19913;-78
2023/03/04 03:19:43;;;;;;;;;;;;;;;;;;5051080;28;20136;-77
2023/03/04 03:22:08;;;;;;;;;;;;;;;;;;5052883;28;19967;-77
2023/03/04 03:24:33;;;;;;;;;;;;;;;;;;5051579;28;19912;-77
2023/03/04 03:26:59;;;;;;;;;;;;;;;;;;5050316;28;19913;-77
2023/03/04 03:29:24;;;;;;;;;;;;;;;;;;5047664;28;19920;-77
2023/03/04 03:31:49;;;;;;;;;;;;;;;;;;5076593;28;20419;-77
2023/03/04 03:34:14;;;;;;;;;;;;;;;;;;5052630;28;20377;-78
2023/03/04 03:36:39;;;;;;;;;;;;;;;;;;5053657;28;19924;-78
2023/03/04 03:39:04;;;;;;;;;;;;;;;;;;5048393;28;19930;-78
2023/03/04 03:41:29;;;;;;;;;;;;;;;;;;5052369;28;19913;-77
2023/03/04 03:43:54;;;;;;;;;;;;;;;;;;5083719;28;19913;-77
2023/03/04 03:46:20;;;;;;;;;;;;;;;;;;5052539;28;20413;-77
2023/03/04 03:48:45;;;;;;;;;;;;;;;;;;5052157;28;20428;-77
2023/03/04 03:51:10;;;;;;;;;;;;;;;;;;5051725;28;19923;-77
2023/03/04 03:53:35;;;;;;;;;;;;;;;;;;5078400;28;20384;-77
2023/03/04 03:56:00;;;;;;;;;;;;;;;;;;5052395;28;19912;-77
2023/03/04 03:58:25;;;;;;;;;;;;;;;;;;5048684;28;19975;-78
2023/03/04 04:00:51;;;;;;;;;;;;;;;;;;5049994;28;19948;-78
2023/03/04 04:03:16;;;;;;;;;;;;;;;;;;5044406;28;19913;-77
2023/03/04 04:05:41;;;;;;;;;;;;;;;;;;5052076;28;19964;-78
2023/03/04 04:08:06;;;;;;;;;;;;;;;;;;5050793;28;20011;-77
2023/03/04 04:10:31;;;;;;;;;;;;;;;;;;5051917;28;19920;-78
2023/03/04 04:12:56;;;;;;;;;;;;;;;;;;5051734;28;19920;-78
2023/03/04 04:15:22;;;;;;;;;;;;;;;;;;5067799;28;19919;-77
2023/03/04 04:17:47;;;;;;;;;;;;;;;;;;5051772;28;19952;-77
2023/03/04 04:20:12;;;;;;;;;;;;;;;;;;5051459;28;20384;-77
2023/03/04 04:22:37;;;;;;;;;;;;;;;;;;5049742;28;20381;-77
2023/03/04 04:25:03;;;;;;;;;;;;;;;;;;5052865;28;19920;-77
2023/03/04 04:27:28;;;;;;;;;;;;;;;;;;5084534;28;19919;-77
2023/03/04 04:29:54;;;;;;;;;;;;;;;;;;5052479;28;19995;-77
2023/03/04 04:32:19;;;;;;;;;;;;;;;;;;5047693;28;20960;-77
2023/03/04 04:34:44;;;;;;;;;;;;;;;;;;5039752;28;19920;-77
2023/03/04 04:37:09;;;;;;;;;;;;;;;;;;5064921;28;19924;-77
2023/03/04 04:39:34;;;;;;;;;;;;;;;;;;5048137;28;19927;-77
2023/03/04 04:41:59;;;;;;;;;;;;;;;;;;5052429;28;20276;-77
2023/03/04 04:44:24;;;;;;;;;;;;;;;;;;5048532;28;19919;-77
2023/03/04 04:46:49;;;;;;;;;;;;;;;;;;5050392;28;19928;-77
2023/03/04 04:49:15;;;;;;;;;;;;;;;;;;5051671;28;19917;-77
2023/03/04 04:51:40;;;;;;;;;;;;;;;;;;5051214;28;19913;-77
2023/03/04 04:54:05;;;;;;;;;;;;;;;;;;5051138;28;20297;-77
2023/03/04 04:56:30;;;;;;;;;;;;;;;;;;5042504;28;20016;-77
2023/03/04 04:58:55;;;;;;;;;;;;;;;;;;5054253;28;19917;-77
2023/03/04 05:01:20;;;;;;;;;;;;;;;;;;5051578;28;20319;-77
2023/03/04 05:03:48;;;;;;;;;;;;;;;;;;5051767;28;20407;-77
2023/03/04 05:06:13;;;;;;;;;;;;;;;;;;5053502;28;20270;-77
2023/03/04 05:08:38;;;;;;;;;;;;;;;;;;5057677;28;19927;-77
2023/03/04 05:11:04;;;;;;;;;;;;;;;;;;5049795;28;19960;-77
2023/03/04 05:13:29;;;;;;;;;;;;;;;;;;5047965;28;19916;-77
2023/03/04 05:15:54;;;;;;;;;;;;;;;;;;5058701;28;19920;-77
2023/03/04 05:18:19;;;;;;;;;;;;;;;;;;5062390;28;19919;-77
2023/03/04 05:20:44;;;;;;;;;;;;;;;;;;5050762;28;20378;-77
2023/03/04 05:23:09;;;;;;;;;;;;;;;;;;5043146;28;19917;-78
2023/03/04 05:25:34;;;;;;;;;;;;;;;;;;5043682;28;19924;-77
2023/03/04 05:28:00;;;;;;;;;;;;;;;;;;5084329;28;20497;-77
2023/03/04 05:30:26;;;;;;;;;;;;;;;;;;5050815;28;19966;-77
2023/03/04 05:32:51;;;;;;;;;;;;;;;;;;5047555;28;19921;-77
2023/03/04 05:35:16;;;;;;;;;;;;;;;;;;5047837;28;19913;-77
2023/03/04 05:37:41;;;;;;;;;;;;;;;;;;5050979;28;19913;-77
2023/03/04 05:40:06;;;;;;;;;;;;;;;;;;5050276;28;20015;-77
2023/03/04 05:42:31;;;;;;;;;;;;;;;;;;5050198;28;20288;-78
2023/03/04 05:44:56;;;;;;;;;;;;;;;;;;5048405;28;19909;-78
2023/03/04 05:47:22;;;;;;;;;;;;;;;;;;5051406;28;19913;-78
2023/03/04 05:49:47;;;;;;;;;;;;;;;;;;5042883;28;19913;-78
2023/03/04 05:52:12;;;;;;;;;;;;;;;;;;5050420;28;19991;-78
2023/03/04 05:54:37;;;;;;;;;;;;;;;;;;5050640;28;19913;-78
2023/03/04 05:57:02;;;;;;;;;;;;;;;;;;5049256;28;20389;-78
2023/03/04 05:59:27;;;;;;;;;;;;;;;;;;5051477;28;20399;-78
2023/03/04 06:01:52;;;;;;;;;;;;;;;;;;5044205;28;19952;-78
2023/03/04 06:04:18;;;;;;;;;;;;;;;;;;5043582;28;20442;-77
2023/03/04 06:06:45;;;;;;;;;;;;;;;;;;5050194;28;19958;-77
2023/03/04 06:09:10;;;;;;;;;;;;;;;;;;5049970;28;19913;-77
2023/03/04 06:11:35;;;;;;;;;;;;;;;;;;5043010;28;19917;-77
2023/03/04 06:14:00;;;;;;;;;;;;;;;;;;5047392;28;19974;-77
2023/03/04 06:16:25;;;;;;;;;;;;;;;;;;5051191;28;19999;-77
2023/03/04 06:18:51;;;;;;;;;;;;;;;;;;5052503;28;19924;-77
2023/03/04 06:21:16;;;;;;;;;;;;;;;;;;5046983;28;19917;-77
2023/03/04 06:23:41;;;;;;;;;;;;;;;;;;5057583;28;19913;-77
2023/03/04 06:26:08;;;;;;;;;;;;;;;;;;5049644;28;19924;-77
2023/03/04 06:28:34;;;;;;;;;;;;;;;;;;5049633;28;19913;-79
2023/03/04 06:30:59;;;;;;;;;;;;;;;;;;5049205;28;19920;-77
2023/03/04 06:33:24;;;;;;;;;;;;;;;;;;5052206;28;19912;-78
2023/03/04 06:35:49;;;;;;;;;;;;;;;;;;5052075;28;19913;-77
2023/03/04 06:38:14;;;;;;;;;;;;;;;;;;5078322;28;19919;-77
2023/03/04 06:40:39;;;;;;;;;;;;;;;;;;5049627;28;20062;-78
2023/03/04 06:43:05;;;;;;;;;;;;;;;;;;5046195;28;19916;-78
2023/03/04 06:45:30;;;;;;;;;;;;;;;;;;5061345;28;19913;-77
2023/03/04 06:47:55;;;;;;;;;;;;;;;;;;5049697;28;19974;-78
2023/03/04 06:50:20;;;;;;;;;;;;;;;;;;5049081;28;19913;-78
2023/03/04 06:52:45;;;;;;;;;;;;;;;;;;5049680;28;19956;-78
2023/03/04 06:55:11;;;;;;;;;;;;;;;;;;5056472;28;19917;-79
2023/03/04 06:57:37;;;;;;;;;;;;;;;;;;5081045;28;19962;-78
2023/03/04 07:00:02;;;;;;;;;;;;;;;;;;5049589;28;19960;-78
2023/03/04 07:02:27;;;;;;;;;;;;;;;;;;5048376;28;19921;-78
2023/03/04 07:04:52;;;;;;;;;;;;;;;;;;5050094;28;20411;-78
2023/03/04 07:07:17;;;;;;;;;;;;;;;;;;5051427;28;20369;-78
2023/03/04 07:09:42;;;;;;;;;;;;;;;;;;5047538;28;19919;-78
2023/03/04 07:12:08;;;;;;;;;;;;;;;;;;5048214;28;19912;-78
2023/03/04 07:14:33;;;;;;;;;;;;;;;;;;5047037;28;19913;-79
2023/03/04 07:16:58;;;;;;;;;;;;;;;;;;5049140;28;20007;-77
2023/03/04 07:19:23;;;;;;;;;;;;;;;;;;5041998;28;20377;-76
2023/03/04 07:21:48;;;;;;;;;;;;;;;;;;5042547;28;19913;-79
2023/03/04 07:24:13;;;;;;;;;;;;;;;;;;5080985;28;19913;-76
2023/03/04 07:26:38;;;;;;;;;;;;;;;;;;5047315;28;19909;-76
2023/03/04 07:29:04;;;;;;;;;;;;;;;;;;5044624;28;20313;-80
2023/03/04 07:31:29;;;;;;;;;;;;;;;;;;5046055;28;19921;-78
2023/03/04 07:33:54;;;;;;;;;;;;;;;;;;5083585;28;19917;-75
2023/03/04 07:36:19;;;;;;;;;;;;;;;;;;5052894;28;20373;-78
2023/03/04 07:38:44;;;;;;;;;;;;;;;;;;5051914;28;19917;-80
2023/03/04 07:41:10;;;;;;;;;;;;;;;;;;5056807;28;20388;-77
2023/03/04 07:43:35;;;;;;;;;;;;;;;;;;5081664;28;19924;-76
2023/03/04 07:46:03;;;;;;;;;;;;;;;;;;5051994;28;20007;-78
2023/03/04 07:48:28;;;;;;;;;;;;;;;;;;5057666;28;19924;-75
2023/03/04 07:50:53;;;;;;;;;;;;;;;;;;5045374;28;19909;-74
2023/03/04 07:53:18;;;;;;;;;;;;;;;;;;5077889;28;19909;-76
2023/03/04 07:55:43;;;;;;;;;;;;;;;;;;5050556;28;20357;-77
2023/03/04 07:58:08;;;;;;;;;;;;;;;;;;5061419;28;20323;-77
2023/03/04 08:00:33;;;;;;;;;;;;;;;;;;5064095;28;20380;-76
2023/03/04 08:02:59;;;;;;;;;;;;;;;;;;5051367;28;19924;-77
2023/03/04 08:05:24;;;;;;;;;;;;;;;;;;5053007;28;19924;-81
2023/03/04 08:07:49;;;;;;;;;;;;;;;;;;5044375;28;20004;-78
2023/03/04 08:10:14;;;;;;;;;;;;;;;;;;5046839;28;20385;-78
2023/03/04 08:12:39;;;;;;;;;;;;;;;;;;5063059;28;20621;-80
2023/03/04 08:15:05;;;;;;;;;;;;;;;;;;5050350;28;19916;-81
2023/03/04 08:17:30;;;;;;;;;;;;;;;;;;5049752;28;19913;-81
2023/03/04 08:19:55;;;;;;;;;;;;;;;;;;5049846;28;19992;-82
2023/03/04 08:22:20;;;;;;;;;;;;;;;;;;5052397;28;19985;-84
2023/03/04 08:24:45;;;;;;;;;;;;;;;;;;5065149;28;19948;-78
2023/03/04 08:27:10;;;;;;;;;;;;;;;;;;5046686;28;19940;-81
2023/03/04 08:29:36;;;;;;;;;;;;;;;;;;5052082;28;19912;-82
2023/03/04 08:32:01;;;;;;;;;;;;;;;;;;5053484;28;19913;-82
2023/03/04 08:34:26;;;;;;;;;;;;;;;;;;5050656;28;20365;-81
2023/03/04 08:36:51;;;;;;;;;;;;;;;;;;5052739;28;20376;-80
2023/03/04 08:39:16;;;;;;;;;;;;;;;;;;5048297;28;19921;-81
2023/03/04 08:41:41;;;;;;;;;;;;;;;;;;5073066;28;19913;-81
2023/03/04 08:44:09;;;;;;;;;;;;;;;;;;5050761;28;19920;-79
2023/03/04 08:46:34;;;;;;;;;;;;;;;;;;5060492;28;19909;-80
2023/03/04 08:48:59;;;;;;;;;;;;;;;;;;5066208;28;20387;-80
2023/03/04 08:51:24;;;;;;;;;;;;;;;;;;5052892;28;20028;-81
2023/03/04 08:53:49;;;;;;;;;;;;;;;;;;5054329;28;19912;-80
2023/03/04 08:56:15;;;;;;;;;;;;;;;;;;5050513;28;20003;-79
2023/03/04 08:58:40;;;;;;;;;;;;;;;;;;5071584;28;19924;-82
2023/03/04 09:01:06;;;;;;;;;;;;;;;;;;5051001;28;19917;-81
2023/03/04 09:03:31;;;;;;;;;;;;;;;;;;5049735;28;19913;-81
2023/03/04 09:05:56;;;;;;;;;;;;;;;;;;5049561;28;20402;-80
2023/03/04 09:08:21;;;;;;;;;;;;;;;;;;5051767;28;20373;-81
2023/03/04 09:10:46;;;;;;;;;;;;;;;;;;5072947;28;19963;-80
2023/03/04 09:13:13;;;;;;;;;;;;;;;;;;5048072;28;19928;-79
2023/03/04 09:15:38;;;;;;;;;;;;;;;;;;5051732;28;19959;-80
2023/03/04 09:18:03;;;;;;;;;;;;;;;;;;5049881;28;20297;-80
2023/03/04 09:20:28;;;;;;;;;;;;;;;;;;5045811;28;20400;-80
2023/03/04 09:22:54;;;;;;;;;;;;;;;;;;5061740;28;19920;-80
2023/03/04 09:25:19;;;;;;;;;;;;;;;;;;5057296;28;19913;-81
2023/03/04 09:27:44;;;;;;;;;;;;;;;;;;5067067;28;20003;-79
2023/03/04 09:30:09;;;;;;;;;;;;;;;;;;5047329;28;19917;-80
2023/03/04 09:32:34;;;;;;;;;;;;;;;;;;5053720;28;19936;-81
2023/03/04 09:34:59;;;;;;;;;;;;;;;;;;5048511;28;19913;-82
2023/03/04 09:37:24;;;;;;;;;;;;;;;;;;5050013;28;20322;-81
2023/03/04 09:39:50;;;;;;;;;;;;;;;;;;5057640;28;20281;-82
2023/03/04 09:42:15;;;;;;;;;;;;;;;;;;5047697;28;19917;-82
2023/03/04 09:44:40;;;;;;;;;;;;;;;;;;5047029;28;19912;-82
2023/03/04 09:47:05;;;;;;;;;;;;;;;;;;5048459;28;19924;-80
2023/03/04 09:49:30;;;;;;;;;;;;;;;;;;5044878;28;19913;-82
2023/03/04 09:51:55;;;;;;;;;;;;;;;;;;5047280;28;20499;-82
2023/03/04 09:54:22;;;;;;;;;;;;;;;;;;5063443;28;20026;-81
2023/03/04 09:56:47;;;;;;;;;;;;;;;;;;5053270;28;19924;-81
2023/03/04 09:59:12;;;;;;;;;;;;;;;;;;5047817;28;19947;-81
2023/03/04 10:01:37;;;;;;;;;;;;;;;;;;5052768;28;20319;-81
2023/03/04 10:04:03;;;;;;;;;;;;;;;;;;5048926;28;19908;-82
2023/03/04 10:06:28;;;;;;;;;;;;;;;;;;5049189;28;19916;-82
2023/03/04 10:08:53;;;;;;;;;;;;;;;;;;5082329;28;20047;-82
2023/03/04 10:11:20;;;;;;;;;;;;;;;;;;5048306;28;19963;-81
2023/03/04 10:13:45;;;;;;;;;;;;;;;;;;5048090;28;20305;-82
2023/03/04 10:16:10;;;;;;;;;;;;;;;;;;5047919;28;19920;-81
2023/03/04 10:18:35;;;;;;;;;;;;;;;;;;5049939;28;19996;-81
2023/03/04 10:21:00;;;;;;;;;;;;;;;;;;5048965;28;19909;-81
2023/03/04 10:23:26;;;;;;;;;;;;;;;;;;5049812;28;19921;-82
2023/03/04 10:25:53;;;;;;;;;;;;;;;;;;5049804;28;19916;-81
2023/03/04 10:28:18;;;;;;;;;;;;;;;;;;5048603;28;20349;-81
2023/03/04 10:30:43;;;;;;;;;;;;;;;;;;5048669;28;19919;-81
2023/03/04 10:33:08;;;;;;;;;;;;;;;;;;5049110;28;20057;-82
2023/03/04 10:35:33;;;;;;;;;;;;;;;;;;5049503;28;19908;-81
2023/03/04 10:37:58;;;;;;;;;;;;;;;;;;5048588;28;19916;-81
2023/03/04 10:40:24;;;;;;;;;;;;;;;;;;5050261;28;19940;-82
2023/03/04 10:42:49;;;;;;;;;;;;;;;;;;5045664;28;19921;-81
2023/03/04 10:45:14;;;;;;;;;;;;;;;;;;5063772;28;19919;-82
2023/03/04 10:47:39;;;;;;;;;;;;;;;;;;5056874;28;19921;-82
2023/03/04 10:50:05;;;;;;;;;;;;;;;;;;5046857;28;20324;-82
2023/03/04 10:52:30;;;;;;;;;;;;;;;;;;5048038;28;20008;-80
2023/03/04 10:54:55;;;;;;;;;;;;;;;;;;5045687;28;19912;-80
2023/03/04 10:57:20;;;;;;;;;;;;;;;;;;5063284;28;19927;-81
2023/03/04 10:59:46;;;;;;;;;;;;;;;;;;5070932;28;19917;-82
2023/03/04 11:02:11;;;;;;;;;;;;;;;;;;5080908;28;19948;-82
2023/03/04 11:04:36;;;;;;;;;;;;;;;;;;5047469;28;20332;-81
2023/03/04 11:07:02;;;;;;;;;;;;;;;;;;5080426;28;20388;-80
2023/03/04 11:09:27;;;;;;;;;;;;;;;;;;5063415;28;19913;-82
2023/03/04 11:11:52;;;;;;;;;;;;;;;;;;5086829;28;19912;-81
2023/03/04 11:14:17;;;;;;;;;;;;;;;;;;5049084;28;20020;-81
2023/03/04 11:16:42;;;;;;;;;;;;;;;;;;5055170;28;20015;-81
2023/03/04 11:19:07;;;;;;;;;;;;;;;;;;5052697;28;19921;-81
2023/03/04 11:21:32;;;;;;;;;;;;;;;;;;5063626;28;19919;-82
2023/03/04 11:23:58;;;;;;;;;;;;;;;;;;5052305;28;20401;-81
2023/03/04 11:26:23;;;;;;;;;;;;;;;;;;5053122;28;20262;-80
2023/03/04 11:28:48;;;;;;;;;;;;;;;;;;5052775;28;20022;-79
2023/03/04 11:31:13;;;;;;;;;;;;;;;;;;5052899;28;19920;-80
2023/03/04 11:33:40;;;;;;;;;;;;;;;;;;5052290;28;20070;-79
2023/03/04 11:36:05;;;;;;;;;;;;;;;;;;5052225;28;19913;-80
2023/03/04 11:38:30;;;;;;;;;;;;;;;;;;5051274;28;19924;-80
2023/03/04 11:40:55;;;;;;;;;;;;;;;;;;5054056;28;20360;-78
2023/03/04 11:43:21;;;;;;;;;;;;;;;;;;5049630;28;20432;-79
2023/03/04 11:45:46;;;;;;;;;;;;;;;;;;5051908;28;19974;-79
2023/03/04 11:48:11;;;;;;;;;;;;;;;;;;5053802;28;19924;-75
2023/03/04 11:50:37;;;;;;;;;;;;;;;;;;5077456;28;20471;-75
2023/03/04 11:53:03;;;;;;;;;;;;;;;;;;5084775;28;19984;-75
2023/03/04 11:55:28;;;;;;;;;;;;;;;;;;5049320;28;20712;-78
2023/03/04 11:57:53;;;;;;;;;;;;;;;;;;5049251;28;20373;-77
2023/03/04 12:00:18;;;;;;;;;;;;;;;;;;5052288;28;20300;-79
2023/03/04 12:02:43;;;;;;;;;;;;;;;;;;5055253;28;20334;-78
2023/03/04 12:05:08;;;;;;;;;;;;;;;;;;5058275;28;20365;-78
2023/03/04 12:07:34;;;;;;;;;;;;;;;;;;5055271;28;19966;-78
2023/03/04 12:09:59;;;;;;;;;;;;;;;;;;5051702;28;20003;-77
2023/03/04 12:12:24;;;;;;;;;;;;;;;;;;5052447;28;20654;-75
2023/03/04 12:14:49;;;;;;;;;;;;;;;;;;5052345;28;19948;-77
2023/03/04 12:17:14;;;;;;;;;;;;;;;;;;5050793;28;19913;-80
2023/03/04 12:19:39;;;;;;;;;;;;;;;;;;5053181;28;19912;-78
2023/03/04 12:22:05;;;;;;;;;;;;;;;;;;5050970;28;19912;-79
2023/03/04 12:24:33;;;;;;;;;;;;;;;;;;5052516;28;19912;-78
2023/03/04 12:27:00;;;;;;;;;;;;;;;;;;5054341;28;19958;-80
2023/03/04 12:29:25;;;;;;;;;;;;;;;;;;5054375;28;19909;-79
2023/03/04 12:31:50;;;;;;;;;;;;;;;;;;5052600;28;20299;-78
2023/03/04 12:34:15;;;;;;;;;;;;;;;;;;5045916;28;19921;-77
2023/03/04 12:36:40;;;;;;;;;;;;;;;;;;5059341;28;20002;-78
2023/03/04 12:39:05;;;;;;;;;;;;;;;;;;5054154;28;19916;-78
2023/03/04 12:41:30;;;;;;;;;;;;;;;;;;5052597;28;19908;-78
2023/03/04 12:43:56;;;;;;;;;;;;;;;;;;5049248;28;20004;-78
2023/03/04 12:46:21;;;;;;;;;;;;;;;;;;5069063;28;19995;-78
2023/03/04 12:48:46;;;;;;;;;;;;;;;;;;5066873;28;20440;-78
2023/03/04 12:51:11;;;;;;;;;;;;;;;;;;5051643;28;19931;-83
2023/03/04 12:53:37;;;;;;;;;;;;;;;;;;5053549;28;19975;-77
2023/03/04 12:56:02;;;;;;;;;;;;;;;;;;5051849;28;19909;-77
2023/03/04 12:58:27;;;;;;;;;;;;;;;;;;5050861;28;19921;-79
2023/03/04 13:00:53;;;;;;;;;;;;;;;;;;5048458;28;19924;-77
2023/03/04 13:03:18;;;;;;;;;;;;;;;;;;5052586;28;19971;-77
2023/03/04 13:05:43;;;;;;;;;;;;;;;;;;5048858;28;20385;-77
2023/03/04 13:08:08;;;;;;;;;;;;;;;;;;5049083;28;20643;-78
2023/03/04 13:10:33;;;;;;;;;;;;;;;;;;5066533;28;20292;-77
2023/03/04 13:13:01;;;;;;;;;;;;;;;;;;5047261;28;19913;-78
2023/03/04 13:15:26;;;;;;;;;;;;;;;;;;5056861;28;19917;-78
2023/03/04 13:17:51;;;;;;;;;;;;;;;;;;5054274;28;19920;-78
2023/03/04 13:20:17;;;;;;;;;;;;;;;;;;5048959;28;20021;-82
2023/03/04 13:22:42;;;;;;;;;;;;;;;;;;5050386;28;20324;-79
2023/03/04 13:25:07;;;;;;;;;;;;;;;;;;5051153;28;19966;-79
2023/03/04 13:27:32;;;;;;;;;;;;;;;;;;5052786;28;20381;-78
2023/03/04 13:29:57;;;;;;;;;;;;;;;;;;5053196;28;19921;-79
2023/03/04 13:32:22;;;;;;;;;;;;;;;;;;5052600;28;20007;-79
2023/03/04 13:34:48;;;;;;;;;;;;;;;;;;5051395;28;19913;-78
2023/03/04 13:37:13;;;;;;;;;;;;;;;;;;5065707;28;19939;-78
2023/03/04 13:39:38;;;;;;;;;;;;;;;;;;5053229;28;19917;-78
2023/03/04 13:42:03;;;;;;;;;;;;;;;;;;5050259;28;19912;-79
2023/03/04 13:44:30;;;;;;;;;;;;;;;;;;5052037;28;20353;-80
2023/03/04 13:46:55;;;;;;;;;;;;;;;;;;5051610;28;19912;-82
2023/03/04 13:49:20;;;;;;;;;;;;;;;;;;5056280;28;19935;-79
2023/03/04 13:51:45;;;;;;;;;;;;;;;;;;5051685;28;19913;-85
2023/03/04 13:54:10;;;;;;;;;;;;;;;;;;5049037;28;19912;-83
2023/03/04 13:56:35;;;;;;;;;;;;;;;;;;5050358;28;20284;-80
2023/03/04 13:59:01;;;;;;;;;;;;;;;;;;5052066;28;20309;-81
2023/03/04 14:01:29;;;;;;;;;;;;;;;;;;5082072;28;20255;-84
2023/03/04 14:03:56;;;;;;;;;;;;;;;;;;5050457;28;19983;-85
2023/03/04 14:06:21;;;;;;;;;;;;;;;;;;5053041;28;19958;-79
2023/03/04 14:08:47;;;;;;;;;;;;;;;;;;5044146;28;19916;-82
2023/03/04 14:11:12;;;;;;;;;;;;;;;;;;5050099;28;20369;-80
2023/03/04 14:13:37;;;;;;;;;;;;;;;;;;5063697;28;20492;-80
2023/03/04 14:16:02;;;;;;;;;;;;;;;;;;5050014;28;19944;-81
2023/03/04 14:18:28;;;;;;;;;;;;;;;;;;5051246;28;20300;-81
2023/03/04 14:20:57;;;;;;;;;;;;;;;;;;5050491;28;19916;-79
2023/03/04 14:23:23;;;;;;;;;;;;;;;;;;5067596;28;20047;-81
2023/03/04 14:25:48;;;;;;;;;;;;;;;;;;5048803;28;20384;-78
2023/03/04 14:28:13;;;;;;;;;;;;;;;;;;5045316;28;19928;-78
2023/03/04 14:30:38;;;;;;;;;;;;;;;;;;5062738;28;19913;-76
2023/03/04 14:33:03;;;;;;;;;;;;;;;;;;5048665;28;19913;-78
2023/03/04 14:35:28;;;;;;;;;;;;;;;;;;5044466;28;19970;-76
2023/03/04 14:37:53;;;;;;;;;;;;;;;;;;5060237;28;20365;-77
2023/03/04 14:40:19;;;;;;;;;;;;;;;;;;5047589;28;19923;-80
2023/03/04 14:42:45;;;;;;;;;;;;;;;;;;5044965;28;20003;-77
2023/03/04 14:45:10;;;;;;;;;;;;;;;;;;5067493;28;19917;-76
2023/03/04 14:47:36;;;;;;;;;;;;;;;;;;5046951;28;19929;-77
2023/03/04 14:50:02;;;;;;;;;;;;;;;;;;5044487;28;19924;-77
2023/03/04 14:52:27;;;;;;;;;;;;;;;;;;5062546;28;20362;-77
2023/03/04 14:54:52;;;;;;;;;;;;;;;;;;5054426;28;19913;-78
2023/03/04 14:57:17;;;;;;;;;;;;;;;;;;5053758;28;19932;-78
2023/03/04 14:59:42;;;;;;;;;;;;;;;;;;5051818;28;20467;-79
2023/03/04 15:02:07;;;;;;;;;;;;;;;;;;5051501;28;19920;-79
2023/03/04 15:04:33;;;;;;;;;;;;;;;;;;5054930;28;20288;-78
2023/03/04 15:06:59;;;;;;;;;;;;;;;;;;5053787;28;19913;-80
2023/03/04 15:09:24;;;;;;;;;;;;;;;;;;5050311;28;19920;-79
2023/03/04 15:11:50;;;;;;;;;;;;;;;;;;5055787;28;19913;-80
2023/03/04 15:14:15;;;;;;;;;;;;;;;;;;5083495;28;19917;-79
2023/03/04 15:16:40;;;;;;;;;;;;;;;;;;5059390;28;19913;-79
2023/03/04 15:19:05;;;;;;;;;;;;;;;;;;5055357;28;19913;-79
2023/03/04 15:21:30;;;;;;;;;;;;;;;;;;5055440;28;19909;-79
2023/03/04 15:23:55;;;;;;;;;;;;;;;;;;5070716;28;20502;-79
2023/03/04 15:26:21;;;;;;;;;;;;;;;;;;5055204;28;19908;-79
2023/03/04 15:28:46;;;;;;;;;;;;;;;;;;5055347;28;19909;-79
2023/03/04 15:31:11;;;;;;;;;;;;;;;;;;5052405;28;20360;-79
2023/03/04 15:33:37;;;;;;;;;;;;;;;;;;5069250;28;20349;-79
2023/03/04 15:36:03;;;;;;;;;;;;;;;;;;5070485;28;20032;-79
2023/03/04 15:38:28;;;;;;;;;;;;;;;;;;5070622;28;19940;-78
2023/03/04 15:40:53;;;;;;;;;;;;;;;;;;5053456;28;19960;-79
2023/03/04 15:43:18;;;;;;;;;;;;;;;;;;5054538;28;20270;-79
2023/03/04 15:45:44;;;;;;;;;;;;;;;;;;5062513;28;19913;-79
2023/03/04 15:48:09;;;;;;;;;;;;;;;;;;5078777;28;19948;-79
2023/03/04 15:50:34;;;;;;;;;;;;;;;;;;5054748;28;19916;-78
2023/03/04 15:53:00;;;;;;;;;;;;;;;;;;5054022;28;19927;-79
2023/03/04 15:55:26;;;;;;;;;;;;;;;;;;5052574;28;19913;-79
2023/03/04 15:57:51;;;;;;;;;;;;;;;;;;5060161;28;20292;-79
2023/03/04 16:00:16;;;;;;;;;;;;;;;;;;5068772;28;19916;-79
2023/03/04 16:02:41;;;;;;;;;;;;;;;;;;5042737;28;20285;-78
2023/03/04 16:05:06;;;;;;;;;;;;;;;;;;5050568;28;19913;-78
2023/03/04 16:07:32;;;;;;;;;;;;;;;;;;5052367;28;20365;-78
2023/03/04 16:09:57;;;;;;;;;;;;;;;;;;5053531;28;20057;-78
2023/03/04 16:12:22;;;;;;;;;;;;;;;;;;5051327;28;19963;-77
2023/03/04 16:14:48;;;;;;;;;;;;;;;;;;5085107;28;20431;-76
2023/03/04 16:17:15;;;;;;;;;;;;;;;;;;5052265;28;19913;-77
2023/03/04 16:19:40;;;;;;;;;;;;;;;;;;5052792;28;19913;-79
2023/03/04 16:22:05;;;;;;;;;;;;;;;;;;5057297;28;20282;-78
2023/03/04 16:24:30;;;;;;;;;;;;;;;;;;5052963;28;19967;-77
2023/03/04 16:26:55;;;;;;;;;;;;;;;;;;5052952;28;19939;-79
2023/03/04 16:29:20;;;;;;;;;;;;;;;;;;5074081;28;19913;-78
2023/03/04 16:31:45;;;;;;;;;;;;;;;;;;5052752;28;19996;-78